createdAt,value
2022-12-04T00:01:23.283Z,-8.00
2022-12-04T00:03:53.643Z,-8.00
2022-12-04T00:06:24.647Z,-8.00
2022-12-04T00:08:53.508Z,-8.00
2022-12-04T00:11:26.277Z,-8.00
2022-12-04T00:16:26.263Z,-8.10
2022-12-04T00:21:23.613Z,-8.10
2022-12-04T00:26:22.486Z,-8.00
2022-12-04T00:28:50.912Z,-8.10
2022-12-04T00:31:21.673Z,-8.10
2022-12-04T00:36:21.241Z,-8.10
2022-12-04T00:38:52.107Z,-6.30
2022-12-04T00:41:22.798Z,-8.20
2022-12-04T00:43:50.732Z,-8.20
2022-12-04T00:46:18.655Z,-6.90
2022-12-04T00:48:47.016Z,-8.50
2022-12-04T00:51:18.656Z,-8.40
2022-12-04T00:56:18.866Z,-8.30
2022-12-04T00:58:46.541Z,-8.10
2022-12-04T01:01:17.187Z,-8.40
2022-12-04T01:03:45.916Z,-8.30
2022-12-04T01:06:30.386Z,-8.40
2022-12-04T01:08:58.963Z,-8.30
2022-12-04T01:11:28.285Z,-8.30
2022-12-04T01:13:56.854Z,-8.30
2022-12-04T01:16:28.821Z,-8.20
2022-12-04T01:26:20.709Z,-8.40
2022-12-04T01:28:48.456Z,-8.20
2022-12-04T01:31:18.213Z,-8.50
2022-12-04T01:33:46.065Z,-7.90
2022-12-04T01:36:17.348Z,-7.90
2022-12-04T01:41:14.733Z,-8.30
2022-12-04T01:46:11.394Z,-8.20
2022-12-04T01:48:45.013Z,-8.40
2022-12-04T01:51:23.632Z,-8.50
2022-12-04T01:53:54.929Z,-8.40
2022-12-04T01:56:33.039Z,-8.70
2022-12-04T01:59:03.119Z,-9.80
2022-12-04T02:01:38.910Z,-9.00
2022-12-04T02:04:06.698Z,-8.40
2022-12-04T02:11:43.117Z,-8.70
2022-12-04T02:14:41.307Z,-8.60
2022-12-04T02:17:20.633Z,-8.60
2022-12-04T02:20:10.453Z,-8.80
2022-12-04T02:23:00.732Z,-8.80
2022-12-04T02:25:44.714Z,-9.00
2022-12-04T02:28:36.166Z,-8.80
2022-12-04T02:31:07.565Z,-8.80
2022-12-04T02:33:45.163Z,-8.90
2022-12-04T02:36:24.659Z,-9.00
2022-12-04T02:39:08.888Z,-8.90
2022-12-04T02:41:46.878Z,-9.00
2022-12-04T02:44:23.553Z,-9.00
2022-12-04T02:46:57.365Z,-8.90
2022-12-04T02:49:32.428Z,-8.90
2022-12-04T02:52:01.675Z,-8.60
2022-12-04T02:54:41.601Z,-9.00
2022-12-04T02:57:14.398Z,-9.00
2022-12-04T02:59:45.954Z,-9.00
2022-12-04T03:02:28.494Z,-8.90
2022-12-04T03:05:00.684Z,-9.00
2022-12-04T03:07:34.504Z,-9.20
2022-12-04T03:10:11.127Z,-8.80
2022-12-04T03:12:45.265Z,-9.20
2022-12-04T03:15:19.694Z,-9.20
2022-12-04T03:17:57.444Z,-9.20
2022-12-04T03:20:26.048Z,-9.10
2022-12-04T03:22:59.799Z,-9.10
2022-12-04T03:25:35.418Z,-9.00
2022-12-04T03:28:09.239Z,-9.00
2022-12-04T03:30:42.831Z,-9.10
2022-12-04T03:33:17.027Z,-8.90
2022-12-04T03:35:55.103Z,-9.00
2022-12-04T03:38:42.690Z,-9.10
2022-12-04T03:41:22.509Z,-9.10
2022-12-04T03:43:53.808Z,-9.20
2022-12-04T03:46:35.466Z,-9.20
2022-12-04T03:49:19.068Z,-9.10
2022-12-04T03:51:54.647Z,-9.30
2022-12-04T03:54:29.435Z,-9.30
2022-12-04T03:57:03.276Z,-9.30
2022-12-04T03:59:40.953Z,-9.40
2022-12-04T04:02:13.307Z,-9.30
2022-12-04T04:04:42.752Z,-9.00
2022-12-04T04:07:21.404Z,-9.40
2022-12-04T04:09:53.777Z,-9.40
2022-12-04T04:12:25.974Z,-10.00
2022-12-04T04:15:13.485Z,-9.70
2022-12-04T04:17:59.868Z,-9.50
2022-12-04T04:21:02.469Z,-9.50
2022-12-04T04:23:52.140Z,-10.00
2022-12-04T04:26:23.517Z,-9.40
2022-12-04T04:28:53.740Z,-9.30
2022-12-04T04:31:39.559Z,-9.30
2022-12-04T04:34:20.885Z,-12.30
2022-12-04T04:37:17.822Z,-9.10
2022-12-04T04:39:58.563Z,-9.40
2022-12-04T04:42:38.813Z,-9.30
2022-12-04T04:45:22.730Z,-9.40
2022-12-04T04:48:03.463Z,-9.40
2022-12-04T04:50:35.297Z,-9.40
2022-12-04T04:53:09.823Z,-9.50
2022-12-04T04:55:41.533Z,-9.40
2022-12-04T04:58:12.252Z,-9.50
2022-12-04T05:00:43.967Z,-9.30
2022-12-04T05:03:14.238Z,-9.40
2022-12-04T05:05:44.464Z,-9.50
2022-12-04T05:08:15.395Z,-9.40
2022-12-04T05:10:43.931Z,-9.40
2022-12-04T05:13:18.276Z,-9.40
2022-12-04T05:15:58.015Z,-9.40
2022-12-04T05:18:29.085Z,-9.60
2022-12-04T05:20:58.603Z,-9.20
2022-12-04T05:23:29.336Z,-9.10
2022-12-04T05:26:04.339Z,-9.30
2022-12-04T05:31:05.086Z,-9.40
2022-12-04T05:33:34.555Z,-9.40
2022-12-04T05:36:08.035Z,-9.30
2022-12-04T05:38:39.127Z,-9.40
2022-12-04T05:41:09.986Z,-9.20
2022-12-04T05:43:40.134Z,-9.40
2022-12-04T05:46:12.567Z,-9.20
2022-12-04T05:48:44.334Z,-9.10
2022-12-04T05:51:14.343Z,-9.40
2022-12-04T05:53:44.418Z,-9.10
2022-12-04T05:56:12.255Z,-9.40
2022-12-04T06:01:11.100Z,-8.90
2022-12-04T06:03:40.787Z,-9.30
2022-12-04T06:06:21.101Z,-9.20
2022-12-04T06:08:55.650Z,-6.30
2022-12-04T06:11:28.687Z,-9.10
2022-12-04T06:13:58.396Z,-9.10
2022-12-04T06:16:32.689Z,-9.20
2022-12-04T06:19:06.381Z,-9.20
2022-12-04T06:21:36.916Z,-9.00
2022-12-04T06:24:06.242Z,-9.00
2022-12-04T06:38:58.158Z,-9.10
2022-12-04T06:41:27.092Z,-9.00
2022-12-04T06:43:55.314Z,-9.00
2022-12-04T06:46:27.074Z,-9.20
2022-12-04T06:48:57.091Z,-9.20
2022-12-04T06:51:30.721Z,-9.10
2022-12-04T06:54:02.024Z,-9.20
2022-12-04T06:56:35.636Z,-9.20
2022-12-04T06:59:10.322Z,-8.90
2022-12-04T07:01:39.966Z,-9.40
2022-12-04T07:06:41.369Z,-9.10
2022-12-04T07:09:17.656Z,-9.20
2022-12-04T07:11:47.115Z,-9.40
2022-12-04T07:14:16.382Z,-9.20
2022-12-04T07:19:14.824Z,-5.90
2022-12-04T07:21:43.149Z,-9.10
2022-12-04T07:24:16.846Z,-9.10
2022-12-04T07:26:46.249Z,-7.10
2022-12-04T07:36:39.200Z,-9.00
2022-12-04T07:41:34.430Z,-9.00
2022-12-04T07:51:31.896Z,-8.70
2022-12-04T07:56:34.780Z,-8.40
2022-12-04T07:59:04.856Z,-8.10
2022-12-04T08:01:36.085Z,-8.60
2022-12-04T08:04:05.619Z,-8.50
2022-12-04T08:06:35.533Z,-8.50
2022-12-04T08:11:37.836Z,-9.00
2022-12-04T08:14:09.622Z,-6.50
2022-12-04T08:16:38.732Z,-7.90
2022-12-04T08:19:08.256Z,-8.20
2022-12-04T08:21:42.434Z,-8.20
2022-12-04T08:29:08.501Z,-7.90
2022-12-04T08:31:38.067Z,-8.10
2022-12-04T08:34:08.255Z,-8.00
2022-12-04T08:36:38.389Z,-7.80
2022-12-04T08:39:07.202Z,-7.90
2022-12-04T08:41:36.211Z,-8.00
2022-12-04T08:44:05.859Z,-8.00
2022-12-04T08:46:36.251Z,-7.90
2022-12-04T08:51:36.325Z,-7.90
2022-12-04T08:54:08.246Z,-7.90
2022-12-04T08:56:37.895Z,-7.90
2022-12-04T09:04:03.420Z,-7.50
2022-12-04T09:09:00.879Z,-7.60
2022-12-04T09:11:30.408Z,-7.60
2022-12-04T09:16:26.651Z,-7.20
2022-12-04T09:18:55.415Z,-7.30
2022-12-04T09:21:24.953Z,-7.40
2022-12-04T09:23:53.199Z,-7.40
2022-12-04T09:26:25.763Z,-7.20
2022-12-04T09:28:55.087Z,-7.30
2022-12-04T09:31:24.041Z,-7.20
2022-12-04T09:36:19.898Z,-7.00
2022-12-04T09:38:49.861Z,-7.10
2022-12-04T11:27:56.240Z,-5.70
2022-12-04T11:30:26.628Z,-5.80
2022-12-04T11:32:55.333Z,-5.60
2022-12-04T11:35:28.080Z,-5.90
2022-12-04T11:38:16.397Z,-6.00
2022-12-04T11:40:50.699Z,-5.90
2022-12-04T11:43:19.405Z,-5.90
2022-12-04T11:46:04.833Z,-6.00
2022-12-04T11:48:41.840Z,-5.90
2022-12-04T11:51:38.700Z,-5.80
2022-12-04T11:54:37.365Z,-6.00
2022-12-04T11:57:27.041Z,-6.10
2022-12-04T12:00:13.232Z,-6.00
2022-12-04T12:03:02.500Z,-6.10
2022-12-04T12:05:55.062Z,-6.10
2022-12-04T12:08:48.468Z,-6.10
2022-12-04T12:11:30.331Z,-6.20
2022-12-04T12:14:14.706Z,-6.20
2022-12-04T12:17:05.561Z,-6.20
2022-12-04T12:20:04.127Z,-6.30
2022-12-04T12:23:05.156Z,-6.40
2022-12-04T12:25:51.687Z,-6.50
2022-12-04T12:28:53.553Z,-6.50
2022-12-04T12:31:48.507Z,-6.50
2022-12-04T12:34:37.480Z,-6.60
2022-12-04T12:37:16.700Z,-6.60
2022-12-04T12:39:54.845Z,-6.70
2022-12-04T12:42:28.849Z,-6.70
2022-12-04T12:45:04.592Z,-6.70
2022-12-04T12:47:39.908Z,-6.80
2022-12-04T12:50:18.736Z,-6.90
2022-12-04T12:53:03.761Z,-6.90
2022-12-04T12:55:37.134Z,-6.90
2022-12-04T12:58:13.907Z,-6.90
2022-12-04T13:00:51.018Z,-6.90
2022-12-04T13:03:40.406Z,-7.00
2022-12-04T13:06:16.437Z,-7.00
2022-12-04T13:09:04.466Z,-7.00
2022-12-04T13:11:33.387Z,-7.10
2022-12-04T13:14:03.775Z,-7.10
2022-12-04T13:16:49.069Z,-7.10
2022-12-04T13:19:25.926Z,-7.10
2022-12-04T13:22:21.690Z,-7.20
2022-12-04T13:25:12.581Z,-7.20
2022-12-04T13:27:58.070Z,-7.20
2022-12-04T13:30:46.871Z,-7.20
2022-12-04T13:33:37.748Z,-7.30
2022-12-04T13:36:29.829Z,-7.30
2022-12-04T13:39:23.204Z,-7.30
2022-12-04T13:41:59.631Z,-7.40
2022-12-04T13:44:29.454Z,-7.40
2022-12-04T13:47:03.612Z,-7.40
2022-12-04T13:49:35.104Z,-7.40
2022-12-04T13:52:05.979Z,-7.40
2022-12-04T13:54:36.711Z,-7.40
2022-12-04T13:57:22.637Z,-7.40
2022-12-04T13:59:50.788Z,-7.40
2022-12-04T14:02:29.313Z,-7.40
2022-12-04T14:05:07.532Z,-7.50
2022-12-04T14:07:38.486Z,-7.50
2022-12-04T14:10:28.625Z,-7.50
2022-12-04T14:13:02.470Z,-7.50
2022-12-04T14:15:37.362Z,-7.50
2022-12-04T14:18:28.732Z,-7.50
2022-12-04T14:21:06.002Z,-7.50
2022-12-04T14:23:40.561Z,-7.60
2022-12-04T14:29:49.695Z,-7.60
2022-12-04T14:32:24.771Z,-7.60
2022-12-04T14:34:54.684Z,-7.70
2022-12-04T14:37:34.692Z,-7.10
2022-12-04T14:40:07.621Z,-7.70
2022-12-04T14:42:39.499Z,-7.70
2022-12-04T14:45:31.627Z,-7.80
2022-12-04T14:48:30.015Z,-7.80
2022-12-04T14:51:20.206Z,-7.10
2022-12-04T14:54:15.964Z,-7.90
2022-12-04T14:57:06.900Z,-7.90
2022-12-04T14:59:45.309Z,-7.90
2022-12-04T15:02:19.132Z,-7.90
2022-12-04T15:04:49.289Z,-7.90
2022-12-04T15:07:26.789Z,-7.90
2022-12-04T15:10:12.567Z,-8.00
2022-12-04T15:12:45.588Z,-8.00
2022-12-04T15:15:27.637Z,-8.00
2022-12-04T15:18:04.735Z,-8.00
2022-12-04T15:20:39.373Z,-8.00
2022-12-04T15:23:07.151Z,-8.10
2022-12-04T15:25:48.591Z,-8.00
2022-12-04T15:28:32.939Z,-8.00
2022-12-04T15:31:15.676Z,-8.10
2022-12-04T15:33:48.625Z,-8.10
2022-12-04T15:36:31.974Z,-8.10
2022-12-04T15:39:00.597Z,-8.20
2022-12-04T15:41:33.808Z,-8.20
2022-12-04T15:44:22.157Z,-8.20
2022-12-04T15:46:55.924Z,-8.20
2022-12-04T15:49:29.263Z,-8.20
2022-12-04T15:52:19.826Z,-8.10
2022-12-04T15:54:56.901Z,-8.20
2022-12-04T15:57:32.643Z,-8.10
2022-12-04T16:00:06.050Z,-8.20
2022-12-04T16:02:40.341Z,-8.30
2022-12-04T16:05:30.215Z,-8.20
2022-12-04T16:08:03.585Z,-8.30
2022-12-04T16:10:36.869Z,-8.30
2022-12-04T16:13:07.829Z,-8.30
2022-12-04T16:15:41.817Z,-8.40
2022-12-04T16:18:14.974Z,-8.50
2022-12-04T16:20:44.395Z,-8.40
2022-12-04T16:23:12.369Z,-8.50
2022-12-04T16:25:43.705Z,-8.50
2022-12-04T16:28:18.026Z,-8.60
2022-12-04T16:30:45.768Z,-8.60
2022-12-04T16:33:15.959Z,-8.60
2022-12-04T16:35:43.833Z,-8.80
2022-12-04T16:38:18.386Z,-8.80
2022-12-04T16:40:50.841Z,-8.80
2022-12-04T16:43:21.349Z,-8.80
2022-12-04T16:45:54.650Z,-8.80
2022-12-04T16:48:24.988Z,-8.80
2022-12-04T16:50:58.912Z,-8.80
2022-12-04T16:53:26.521Z,-8.80
2022-12-04T16:55:59.979Z,-8.80
2022-12-04T16:58:27.888Z,-8.70
2022-12-04T17:00:57.002Z,-8.80
2022-12-04T17:03:28.850Z,-8.80
2022-12-04T17:05:57.642Z,-8.90
2022-12-04T17:08:25.448Z,-8.80
2022-12-04T17:10:56.389Z,-8.70
2022-12-04T17:13:24.198Z,-8.70
2022-12-04T17:15:51.674Z,-8.80
2022-12-04T17:18:21.290Z,-8.80
2022-12-04T17:20:49.642Z,-8.60
2022-12-04T17:23:17.382Z,-8.60
2022-12-04T17:25:45.239Z,-8.80
2022-12-04T17:28:12.800Z,-8.80
2022-12-04T17:30:44.776Z,-8.80
2022-12-04T17:33:12.717Z,-8.80
2022-12-04T17:35:43.721Z,-9.00
2022-12-04T17:38:11.361Z,-9.00
2022-12-04T17:40:39.001Z,-9.10
2022-12-04T17:43:06.580Z,-9.20
2022-12-04T17:45:39.775Z,-9.20
2022-12-04T17:48:07.536Z,-9.20
2022-12-04T17:50:35.049Z,-9.20
2022-12-04T17:53:05.218Z,-9.20
2022-12-04T17:55:35.224Z,-9.20
2022-12-04T17:58:03.140Z,-9.20
2022-12-04T18:00:30.904Z,-9.40
2022-12-04T18:02:58.592Z,-9.30
2022-12-04T18:05:26.251Z,-9.20
2022-12-04T18:07:54.921Z,-9.20
2022-12-04T18:10:22.600Z,-9.20
2022-12-04T18:12:50.219Z,-9.30
2022-12-04T18:15:17.824Z,-9.30
2022-12-04T18:17:45.575Z,-9.30
2022-12-04T18:20:13.967Z,-9.40
2022-12-04T18:22:41.667Z,-9.30
2022-12-04T18:25:10.923Z,-9.50
2022-12-04T18:27:41.883Z,-9.50
2022-12-04T18:30:17.389Z,-9.50
2022-12-04T18:32:45.449Z,-9.50
2022-12-04T18:35:13.070Z,-9.50
2022-12-04T18:37:40.841Z,-9.60
2022-12-04T18:40:09.272Z,-9.40
2022-12-04T18:42:37.141Z,-9.50
2022-12-04T18:45:05.235Z,-9.60
2022-12-04T18:47:32.986Z,-9.60
2022-12-04T18:50:00.807Z,-9.60
2022-12-04T18:52:28.520Z,-9.50
2022-12-04T18:54:56.168Z,-9.50
2022-12-04T18:57:27.267Z,-9.50
2022-12-04T18:59:55.914Z,-9.40
2022-12-04T19:02:24.131Z,-9.60
2022-12-04T19:04:51.794Z,-9.60
2022-12-04T19:07:19.380Z,-9.70
2022-12-04T19:10:10.566Z,-9.60
2022-12-04T19:12:34.541Z,-9.40
2022-12-04T19:15:02.259Z,-9.50
2022-12-04T19:17:35.593Z,-9.50
2022-12-04T19:20:03.286Z,-9.40
2022-12-04T19:22:31.214Z,-9.40
2022-12-04T19:25:00.336Z,-9.50
2022-12-04T19:27:28.296Z,-9.30
2022-12-04T19:29:56.951Z,-9.20
2022-12-04T19:32:25.395Z,-9.30
2022-12-04T19:34:53.927Z,-9.30
2022-12-04T19:37:24.108Z,-9.30
2022-12-04T19:39:51.744Z,-9.30
2022-12-04T19:42:19.371Z,-9.20
2022-12-04T19:44:49.766Z,-9.30
2022-12-04T19:47:18.356Z,-9.20
2022-12-04T19:49:46.769Z,-9.20
2022-12-04T19:52:14.910Z,-9.20
2022-12-04T19:54:42.567Z,-9.40
2022-12-04T19:57:10.528Z,-9.40
2022-12-04T19:59:43.085Z,-9.50
2022-12-04T20:02:13.599Z,-9.30
2022-12-04T20:04:44.216Z,-9.50
2022-12-04T20:07:14.172Z,-9.30
2022-12-04T20:09:48.742Z,-9.50
2022-12-04T20:12:19.450Z,-9.50
2022-12-04T20:14:46.947Z,-9.40
2022-12-04T20:17:17.631Z,-9.50
2022-12-04T20:19:45.177Z,-9.20
2022-12-04T20:22:12.827Z,-9.40
2022-12-04T20:24:40.318Z,-9.30
2022-12-04T20:27:08.083Z,-9.40
2022-12-04T20:29:37.761Z,-9.40
2022-12-04T20:32:07.860Z,-9.50
2022-12-04T20:34:44.621Z,-9.40
2022-12-04T20:37:12.380Z,-9.50
2022-12-04T20:39:42.723Z,-9.50
2022-12-04T20:42:10.338Z,-9.40
2022-12-04T20:44:37.991Z,-9.40
2022-12-04T20:47:05.725Z,-9.20
2022-12-04T20:49:33.418Z,-9.30
2022-12-04T20:52:01.105Z,-9.40
2022-12-04T20:54:28.577Z,-9.50
2022-12-04T20:56:57.072Z,-9.30
2022-12-04T20:59:28.192Z,-9.10
2022-12-04T21:01:56.112Z,-9.40
2022-12-04T21:04:23.999Z,-9.50
2022-12-04T21:06:51.492Z,-9.50
2022-12-04T21:09:23.576Z,-9.60
2022-12-04T21:11:53.554Z,-9.50
2022-12-04T21:14:42.382Z,-9.60
2022-12-04T21:17:17.012Z,-9.70
2022-12-04T21:19:45.776Z,-9.50
2022-12-04T21:22:13.787Z,-9.50
2022-12-04T21:24:42.330Z,-9.60
2022-12-04T21:27:15.675Z,-9.50
2022-12-04T21:29:46.387Z,-9.50
2022-12-04T21:32:13.700Z,-9.30
2022-12-04T21:34:41.048Z,-9.30
2022-12-04T21:37:08.667Z,-9.70
2022-12-04T21:39:37.486Z,-9.70
2022-12-04T21:42:23.381Z,-9.70
2022-12-04T21:44:51.050Z,-9.40
2022-12-04T21:47:18.826Z,-9.60
2022-12-04T21:49:47.808Z,-9.60
2022-12-04T21:52:17.367Z,-9.60
2022-12-04T21:54:45.355Z,-9.50
2022-12-04T21:57:12.754Z,-9.70
2022-12-04T21:59:40.206Z,-9.70
2022-12-04T22:02:10.700Z,-9.80
2022-12-04T22:04:38.429Z,-9.70
2022-12-04T22:07:07.389Z,-9.80
2022-12-04T22:09:36.216Z,-9.90
2022-12-04T22:12:10.380Z,-9.80
2022-12-04T22:14:51.182Z,-9.60
2022-12-04T22:17:18.635Z,-9.80
2022-12-04T22:19:46.136Z,-9.70
2022-12-04T22:22:13.683Z,-9.50
2022-12-04T22:24:41.915Z,-9.60
2022-12-04T22:27:14.998Z,-9.70
2022-12-04T22:29:50.304Z,-9.50
2022-12-04T22:32:19.447Z,-9.30
2022-12-04T22:34:49.284Z,-9.70
2022-12-04T22:37:17.098Z,-9.40
2022-12-04T22:39:44.626Z,-9.40
2022-12-04T22:42:11.915Z,-9.70
2022-12-04T22:44:39.484Z,-9.70
2022-12-04T22:47:07.106Z,-9.70
2022-12-04T22:49:34.533Z,-9.70
2022-12-04T22:52:02.018Z,-9.80
2022-12-04T22:54:29.796Z,-9.70
2022-12-04T22:56:57.116Z,-9.80
2022-12-04T22:59:24.491Z,-9.90
2022-12-04T23:01:51.819Z,-9.80
2022-12-04T23:04:19.245Z,-9.70
2022-12-04T23:06:47.114Z,-9.90
2022-12-04T23:09:17.150Z,-9.70
2022-12-04T23:11:46.058Z,-9.80
2022-12-04T23:14:15.512Z,-9.80
2022-12-04T23:16:43.715Z,-9.90
2022-12-04T23:19:13.927Z,-10.00
2022-12-04T23:21:42.156Z,-10.00
2022-12-04T23:24:11.122Z,-9.90
2022-12-04T23:26:44.991Z,-9.90
2022-12-04T23:29:44.376Z,-9.80
2022-12-04T23:32:00.561Z,-9.80
2022-12-04T23:34:28.163Z,-9.70
2022-12-04T23:36:55.602Z,-9.90
2022-12-04T23:39:23.045Z,-10.00
2022-12-04T23:41:50.486Z,-9.80
2022-12-04T23:44:18.423Z,-9.90
2022-12-04T23:46:46.012Z,-9.90
2022-12-04T23:49:13.519Z,-10.00
2022-12-04T23:51:41.049Z,-9.90
2022-12-04T23:54:08.505Z,-10.10
2022-12-04T23:56:35.967Z,-9.90
2022-12-04T23:59:03.530Z,-9.80
